Time;durP1;ratioP1;P1;durP2;ratioP2;P2;SDS_P1;SDS_P2;PMS_P1;PMS_P2;Temp;Humidity;BMP_temperature;BMP_pressure;BME280_temperature;BME280_humidity;BME280_pressure;Samples;Min_cycle;Max_cycle;Signal;HPM_P1;HPM_P2
2023/08/14 00:04:36;;;;;;;3.40;3.10;;;25.10;43.70;;;;;;10268095;28;20326;-70
2023/08/14 00:09:39;;;;;;;4.00;3.40;;;25.10;43.30;;;;;;10272566;28;20248;-71
2023/08/14 00:14:43;;;;;;;3.20;3.00;;;25.10;43.30;;;;;;10265317;28;20228;-70
2023/08/14 00:19:47;;;;;;;3.23;3.00;;;25.10;43.60;;;;;;10265948;28;20251;-70
2023/08/14 00:24:50;;;;;;;3.33;3.10;;;25.20;43.20;;;;;;10273366;28;20282;-70
2023/08/14 00:29:54;;;;;;;3.00;2.80;;;25.20;43.20;;;;;;10269221;28;20290;-71
2023/08/14 00:34:58;;;;;;;2.93;2.73;;;25.20;43.30;;;;;;10268617;28;20235;-70
2023/08/14 00:40:01;;;;;;;3.13;2.93;;;25.20;43.00;;;;;;10267944;28;20597;-71
2023/08/14 00:45:07;;;;;;;3.83;3.10;;;25.20;43.00;;;;;;10269931;28;20577;-70
2023/08/14 00:50:11;;;;;;;3.60;3.30;;;25.10;43.50;;;;;;10275134;28;20763;-71
2023/08/14 00:55:18;;;;;;;3.00;2.80;;;25.10;43.20;;;;;;10268028;28;20645;-70
2023/08/14 01:00:23;;;;;;;3.73;3.43;;;25.10;43.40;;;;;;10263764;28;20327;-71
2023/08/14 01:05:26;;;;;;;3.40;3.20;;;25.00;43.10;;;;;;10267007;28;20269;-71
2023/08/14 01:10:41;;;;;;;3.30;3.00;;;25.00;42.80;;;;;;10262438;28;20255;-71
2023/08/14 01:15:50;;;;;;;3.60;3.30;;;24.90;43.40;;;;;;10266385;28;20783;-71
2023/08/14 01:21:06;;;;;;;3.50;3.30;;;24.90;43.50;;;;;;10271192;28;20779;-71
2023/08/14 01:26:11;;;;;;;2.90;2.70;;;24.80;43.70;;;;;;10265586;28;20231;-71
2023/08/14 01:31:14;;;;;;;3.23;2.93;;;24.70;43.30;;;;;;10269860;28;20231;-71
2023/08/14 01:36:21;;;;;;;2.80;2.60;;;24.70;43.20;;;;;;10265886;28;20240;-71
2023/08/14 01:41:32;;;;;;;3.30;2.73;;;24.60;43.60;;;;;;10263596;28;20327;-70
2023/08/14 01:46:37;;;;;;;3.33;3.07;;;24.50;43.90;;;;;;10262220;28;20291;-71
2023/08/14 01:51:41;;;;;;;3.00;2.80;;;24.50;43.40;;;;;;10255048;28;20243;-70
2023/08/14 01:56:46;;;;;;;3.47;3.10;;;24.50;43.30;;;;;;10260494;28;20291;-71
2023/08/14 02:01:49;;;;;;;3.77;3.10;;;24.50;43.50;;;;;;10267368;28;20247;-71
2023/08/14 02:06:52;;;;;;;3.23;3.03;;;24.50;43.20;;;;;;10267952;28;20274;-71
2023/08/14 02:11:57;;;;;;;3.43;3.13;;;24.40;43.10;;;;;;10259811;28;20235;-71
2023/08/14 02:17:00;;;;;;;4.37;3.50;;;24.40;43.40;;;;;;10267832;28;20705;-70
2023/08/14 02:22:03;;;;;;;3.67;3.47;;;24.30;43.30;;;;;;10267999;28;20235;-70
2023/08/14 02:27:08;;;;;;;3.60;3.30;;;24.20;43.40;;;;;;10263832;28;20232;-71
2023/08/14 02:32:11;;;;;;;3.40;3.10;;;24.10;43.90;;;;;;10261338;28;20242;-70
2023/08/14 02:37:16;;;;;;;3.60;3.30;;;24.00;43.80;;;;;;10265032;28;20708;-71
2023/08/14 02:42:21;;;;;;;3.50;3.27;;;23.90;43.90;;;;;;10263792;28;20247;-71
2023/08/14 02:47:24;;;;;;;3.33;3.03;;;23.80;44.30;;;;;;10264898;28;20246;-71
2023/08/14 02:52:27;;;;;;;3.23;2.93;;;23.80;44.10;;;;;;10260072;28;20228;-71
2023/08/14 02:57:32;;;;;;;3.30;3.00;;;23.80;44.20;;;;;;10266283;28;20231;-71
2023/08/14 03:02:35;;;;;;;3.83;3.53;;;23.80;44.60;;;;;;10268137;28;20259;-70
2023/08/14 03:07:38;;;;;;;3.70;3.40;;;23.80;44.30;;;;;;10263525;28;20658;-71
2023/08/14 03:12:43;;;;;;;3.27;3.00;;;23.70;44.30;;;;;;10263611;28;20259;-71
2023/08/14 03:17:46;;;;;;;3.83;3.50;;;23.70;44.40;;;;;;10258517;28;20235;-71
2023/08/14 03:22:49;;;;;;;3.50;3.20;;;23.60;44.30;;;;;;10263039;28;20240;-70
2023/08/14 03:27:54;;;;;;;3.37;3.07;;;23.60;44.50;;;;;;10264877;28;20720;-71
2023/08/14 03:32:57;;;;;;;4.40;3.03;;;23.60;44.70;;;;;;10257434;28;20236;-71
2023/08/14 03:38:00;;;;;;;3.70;3.40;;;23.50;44.40;;;;;;10261320;28;20242;-71
2023/08/14 03:43:05;;;;;;;3.90;3.60;;;23.50;44.60;;;;;;10266757;28;20239;-71
2023/08/14 03:48:08;;;;;;;3.40;3.20;;;23.50;44.60;;;;;;10268299;28;20246;-71
2023/08/14 03:53:12;;;;;;;3.80;3.50;;;23.50;44.40;;;;;;10274837;28;20647;-71
2023/08/14 03:58:17;;;;;;;3.47;3.13;;;23.50;44.50;;;;;;10274514;28;20343;-71
2023/08/14 04:03:21;;;;;;;4.00;3.60;;;23.50;44.60;;;;;;10270413;28;20315;-71
2023/08/14 04:08:25;;;;;;;4.60;3.43;;;23.40;44.50;;;;;;10268770;28;20323;-71
2023/08/14 04:13:29;;;;;;;3.10;2.90;;;23.40;44.60;;;;;;10267838;28;21045;-71
2023/08/14 04:18:33;;;;;;;2.67;2.40;;;23.30;44.80;;;;;;10264542;28;20231;-70
2023/08/14 04:23:37;;;;;;;2.83;2.63;;;23.30;44.80;;;;;;10270391;28;20854;-71
2023/08/14 04:28:42;;;;;;;3.07;2.67;;;23.30;44.80;;;;;;10273463;28;20232;-71
2023/08/14 04:33:45;;;;;;;2.63;2.40;;;23.30;45.20;;;;;;10272113;28;20239;-71
2023/08/14 04:38:48;;;;;;;2.83;2.53;;;23.30;45.00;;;;;;10273644;28;20715;-71
2023/08/14 04:43:52;;;;;;;2.87;2.63;;;23.30;45.30;;;;;;10266348;28;20326;-71
2023/08/14 04:48:56;;;;;;;3.87;2.90;;;23.30;45.80;;;;;;10262349;28;20735;-71
2023/08/14 04:54:00;;;;;;;3.33;2.70;;;23.30;45.50;;;;;;10264973;28;20330;-71
2023/08/14 04:59:04;;;;;;;4.43;2.57;;;23.20;45.50;;;;;;10273200;28;20743;-71
2023/08/14 05:04:08;;;;;;;2.67;2.47;;;23.30;46.20;;;;;;10259895;28;20240;-71
2023/08/14 05:09:11;;;;;;;4.27;3.07;;;23.20;45.90;;;;;;10269245;28;20609;-71
2023/08/14 05:14:31;;;;;;;2.93;2.50;;;23.30;46.40;;;;;;10269644;28;20332;-71
2023/08/14 05:19:34;;;;;;;3.40;2.30;;;23.20;47.40;;;;;;10264100;28;20235;-71
2023/08/14 05:24:37;;;;;;;4.37;2.47;;;23.30;46.70;;;;;;10262614;28;20232;-71
2023/08/14 05:29:42;;;;;;;2.27;2.10;;;23.30;46.60;;;;;;10267034;28;20704;-71
2023/08/14 05:34:45;;;;;;;2.40;2.20;;;23.30;47.10;;;;;;10268170;28;20236;-71
2023/08/14 05:39:48;;;;;;;2.07;1.97;;;23.40;46.80;;;;;;10266220;28;20704;-71
2023/08/14 05:44:52;;;;;;;1.83;1.70;;;23.50;46.80;;;;;;10265924;28;20334;-70
2023/08/14 05:49:56;;;;;;;2.03;1.90;;;23.50;47.60;;;;;;10267189;28;20231;-71
2023/08/14 05:54:59;;;;;;;2.23;2.10;;;23.60;47.10;;;;;;10271435;28;20283;-71
2023/08/14 06:00:05;;;;;;;1.80;1.70;;;23.60;47.20;;;;;;10265313;28;20630;-71
2023/08/14 06:05:09;;;;;;;1.57;1.47;;;23.70;47.70;;;;;;10265944;28;20231;-71
2023/08/14 06:10:12;;;;;;;1.33;1.27;;;23.80;47.20;;;;;;10267944;28;20322;-71
2023/08/14 06:15:18;;;;;;;1.50;1.40;;;23.90;47.30;;;;;;10265984;28;20294;-70
2023/08/14 06:20:22;;;;;;;1.50;1.20;;;23.90;47.40;;;;;;10264933;28;20244;-71
2023/08/14 06:25:29;;;;;;;1.40;1.30;;;24.00;47.10;;;;;;10258529;28;20319;-71
2023/08/14 06:30:34;;;;;;;1.33;1.30;;;24.10;47.10;;;;;;10260522;28;20236;-71
2023/08/14 06:35:37;;;;;;;1.33;1.23;;;24.20;47.00;;;;;;10274540;28;20239;-71
2023/08/14 06:40:41;;;;;;;1.33;1.23;;;24.30;47.00;;;;;;10268915;28;20259;-71
2023/08/14 06:45:47;;;;;;;1.10;1.10;;;24.40;47.00;;;;;;10268236;28;20263;-71
2023/08/14 06:50:52;;;;;;;1.10;1.10;;;24.50;46.90;;;;;;10262201;28;20246;-71
2023/08/14 06:55:56;;;;;;;1.40;1.20;;;24.60;47.00;;;;;;10263441;28;20227;-71
2023/08/14 07:01:00;;;;;;;1.20;1.20;;;24.80;46.90;;;;;;10262230;28;20242;-71
2023/08/14 07:06:04;;;;;;;1.50;1.40;;;24.90;47.70;;;;;;10258934;28;20251;-71
2023/08/14 07:11:07;;;;;;;1.40;1.30;;;25.00;47.50;;;;;;10261089;28;20250;-71
2023/08/14 07:16:12;;;;;;;1.70;1.60;;;25.20;46.50;;;;;;10265179;28;20244;-71
2023/08/14 07:21:15;;;;;;;2.00;1.60;;;25.30;46.10;;;;;;10269785;28;20240;-71
2023/08/14 07:26:18;;;;;;;2.80;2.10;;;25.50;46.00;;;;;;10271701;28;20244;-70
2023/08/14 07:31:24;;;;;;;2.23;1.40;;;25.60;46.20;;;;;;10274876;28;20243;-71
2023/08/14 07:36:27;;;;;;;1.50;1.50;;;25.80;45.60;;;;;;10270205;28;20236;-71
2023/08/14 07:41:30;;;;;;;1.53;1.20;;;26.00;45.60;;;;;;10269734;28;20244;-71
2023/08/14 07:46:35;;;;;;;1.40;1.30;;;26.10;45.30;;;;;;10278652;28;20298;-71
2023/08/14 07:51:38;;;;;;;1.50;1.40;;;26.30;45.10;;;;;;10274369;28;20240;-71
2023/08/14 07:56:41;;;;;;;1.40;1.30;;;26.50;44.80;;;;;;10275657;28;20256;-71
2023/08/14 08:01:50;;;;;;;1.50;1.40;;;26.70;44.30;;;;;;10270970;28;20267;-71
2023/08/14 08:06:53;;;;;;;2.30;1.40;;;26.90;43.30;;;;;;10267959;28;20344;-71
2023/08/14 08:11:57;;;;;;;1.70;1.60;;;27.10;43.60;;;;;;10272186;28;20239;-71
2023/08/14 08:17:01;;;;;;;2.90;1.60;;;27.30;43.50;;;;;;10280124;28;20231;-71
2023/08/14 08:22:05;;;;;;;2.00;1.83;;;27.40;42.50;;;;;;10272037;28;20272;-71
2023/08/14 08:27:08;;;;;;;1.97;1.80;;;27.70;42.70;;;;;;10275542;28;20327;-70
2023/08/14 08:32:12;;;;;;;1.60;1.50;;;28.00;42.90;;;;;;10274509;28;20867;-71
2023/08/14 08:37:19;;;;;;;1.90;1.80;;;28.20;41.60;;;;;;10272114;28;20726;-70
2023/08/14 08:42:23;;;;;;;2.03;1.90;;;28.40;41.80;;;;;;10263194;28;20267;-71
2023/08/14 08:47:30;;;;;;;1.73;1.63;;;28.70;40.20;;;;;;10265515;28;20264;-71
2023/08/14 08:52:34;;;;;;;2.20;2.00;;;28.90;39.60;;;;;;10270554;28;20602;-71
2023/08/14 08:57:39;;;;;;;1.80;1.70;;;29.20;40.10;;;;;;10274374;28;20259;-71
2023/08/14 09:02:44;;;;;;;1.80;1.70;;;29.40;39.60;;;;;;10266248;28;20236;-71
2023/08/14 09:07:53;;;;;;;1.87;1.77;;;29.70;38.60;;;;;;10271069;28;20255;-71
2023/08/14 09:12:57;;;;;;;3.00;2.00;;;29.80;38.90;;;;;;10261389;28;20236;-71
2023/08/14 09:18:02;;;;;;;1.80;1.70;;;30.10;38.30;;;;;;10268431;28;20228;-71
2023/08/14 09:23:05;;;;;;;2.23;1.93;;;30.20;37.40;;;;;;10258106;28;20232;-71
2023/08/14 09:28:09;;;;;;;2.30;2.03;;;30.40;37.90;;;;;;10271289;28;20251;-71
2023/08/14 09:33:14;;;;;;;1.90;1.80;;;30.50;37.80;;;;;;10268307;28;20242;-71
2023/08/14 09:38:17;;;;;;;2.10;1.90;;;30.60;36.80;;;;;;10272690;28;20283;-71
2023/08/14 09:43:20;;;;;;;2.43;2.20;;;30.80;37.20;;;;;;10266963;28;20247;-71
2023/08/14 09:48:40;;;;;;;1.90;1.80;;;30.80;36.60;;;;;;10277391;28;20239;-71
2023/08/14 09:53:47;;;;;;;2.50;2.30;;;30.80;36.30;;;;;;10264547;28;20235;-71
2023/08/14 09:58:51;;;;;;;2.40;2.20;;;30.80;36.10;;;;;;10269196;28;20236;-71
2023/08/14 10:03:57;;;;;;;2.70;2.50;;;30.90;36.60;;;;;;10270601;28;21023;-71
2023/08/14 10:09:02;;;;;;;2.73;2.53;;;30.90;35.60;;;;;;10264921;28;20303;-71
2023/08/14 10:14:07;;;;;;;2.70;2.50;;;31.00;36.00;;;;;;10267329;28;20250;-71
2023/08/14 10:19:14;;;;;;;2.50;2.30;;;31.20;35.60;;;;;;10269109;28;20724;-71
2023/08/14 10:24:18;;;;;;;3.63;2.30;;;31.30;34.70;;;;;;10260572;28;20232;-71
2023/08/14 10:29:21;;;;;;;2.67;2.47;;;31.60;35.50;;;;;;10256424;28;20581;-71
2023/08/14 10:34:30;;;;;;;2.63;2.30;;;31.80;34.70;;;;;;10262609;28;21164;-71
2023/08/14 10:39:34;;;;;;;2.13;2.03;;;31.90;33.30;;;;;;10268023;28;20235;-71
2023/08/14 10:44:38;;;;;;;2.30;2.10;;;32.10;33.70;;;;;;10263109;28;20606;-71
2023/08/14 10:49:47;;;;;;;2.30;2.10;;;32.20;33.80;;;;;;10261758;28;20739;-71
2023/08/14 10:54:53;;;;;;;2.23;2.13;;;32.40;32.50;;;;;;10260362;28;20264;-71
2023/08/14 10:59:58;;;;;;;2.67;2.47;;;32.50;32.10;;;;;;10272727;28;20317;-71
2023/08/14 11:05:12;;;;;;;3.30;2.30;;;32.60;32.30;;;;;;10270246;28;20238;-71
2023/08/14 11:10:16;;;;;;;2.60;2.40;;;32.70;31.20;;;;;;10274350;28;20259;-71
2023/08/14 11:15:20;;;;;;;2.90;2.40;;;32.70;31.90;;;;;;10268183;28;20616;-71
2023/08/14 11:20:26;;;;;;;2.50;2.27;;;32.80;31.10;;;;;;10272946;28;20239;-71
2023/08/14 11:25:30;;;;;;;2.50;2.13;;;32.80;30.20;;;;;;10264063;28;20421;-71
2023/08/14 11:30:35;;;;;;;3.63;2.33;;;32.80;31.50;;;;;;10274724;28;20725;-71
2023/08/14 11:35:40;;;;;;;2.60;2.30;;;32.80;30.60;;;;;;10272660;28;20326;-71
2023/08/14 11:40:43;;;;;;;2.50;2.30;;;32.90;30.50;;;;;;10269310;28;20280;-71
2023/08/14 11:45:47;;;;;;;2.60;2.40;;;33.00;30.70;;;;;;10270647;28;20275;-71
2023/08/14 11:50:52;;;;;;;2.30;2.20;;;33.00;30.40;;;;;;10266455;28;20264;-71
2023/08/14 11:55:55;;;;;;;3.23;2.10;;;33.10;29.70;;;;;;10269279;28;20786;-71
2023/08/14 12:00:59;;;;;;;2.40;2.20;;;33.10;29.90;;;;;;10267427;28;20234;-71
2023/08/14 12:06:05;;;;;;;2.03;1.93;;;33.20;30.00;;;;;;10271649;28;20248;-71
2023/08/14 12:11:08;;;;;;;2.03;1.93;;;33.10;29.20;;;;;;10262537;28;20286;-71
2023/08/14 12:16:12;;;;;;;2.50;2.30;;;33.10;29.50;;;;;;10265583;28;20264;-70
2023/08/14 12:21:27;;;;;;;2.23;2.10;;;33.20;29.60;;;;;;10270517;28;20243;-71
2023/08/14 12:26:37;;;;;;;2.50;2.30;;;33.20;28.60;;;;;;10265629;28;20234;-71
2023/08/14 12:31:40;;;;;;;2.70;2.20;;;33.20;29.00;;;;;;10268415;28;20294;-71
2023/08/14 12:36:45;;;;;;;2.37;2.00;;;33.20;29.10;;;;;;10267441;28;20288;-71
2023/08/14 12:41:48;;;;;;;2.43;2.23;;;33.20;28.70;;;;;;10269121;28;20236;-71
2023/08/14 12:46:51;;;;;;;2.70;2.50;;;33.10;29.10;;;;;;10268560;28;20322;-70
2023/08/14 12:51:59;;;;;;;2.33;2.20;;;33.00;29.20;;;;;;10269243;28;20697;-71
2023/08/14 12:57:03;;;;;;;2.40;2.20;;;33.00;29.00;;;;;;10268169;28;20924;-71
2023/08/14 13:02:07;;;;;;;2.43;2.13;;;33.00;29.50;;;;;;10272245;28;20232;-71
2023/08/14 13:07:11;;;;;;;2.67;2.47;;;33.10;29.60;;;;;;10266736;28;20283;-70
2023/08/14 13:12:15;;;;;;;2.10;1.90;;;33.10;29.40;;;;;;10264139;28;20246;-71
2023/08/14 13:17:18;;;;;;;2.27;2.10;;;33.10;29.50;;;;;;10272320;28;20239;-71
2023/08/14 13:22:23;;;;;;;4.67;2.10;;;33.00;29.50;;;;;;10261014;28;20243;-71
2023/08/14 13:27:26;;;;;;;2.30;2.20;;;33.00;29.20;;;;;;10262186;28;20683;-71
2023/08/14 13:32:29;;;;;;;4.20;2.20;;;33.00;29.70;;;;;;10273221;28;20248;-71
2023/08/14 13:37:34;;;;;;;3.67;2.00;;;33.00;29.90;;;;;;10269707;28;20279;-71
2023/08/14 13:42:37;;;;;;;2.30;2.10;;;33.00;29.60;;;;;;10267616;28;20271;-71
2023/08/14 13:47:40;;;;;;;2.33;2.13;;;33.10;29.80;;;;;;10265840;28;20354;-71
2023/08/14 13:52:58;;;;;;;2.40;2.30;;;33.00;29.70;;;;;;10266332;28;20235;-71
2023/08/14 13:58:03;;;;;;;2.07;1.97;;;33.00;29.30;;;;;;10268948;28;20231;-71
2023/08/14 14:03:06;;;;;;;2.23;2.10;;;33.00;29.50;;;;;;10262098;28;20274;-71
2023/08/14 14:08:11;;;;;;;3.43;2.30;;;33.10;29.50;;;;;;10267430;28;20232;-71
2023/08/14 14:13:14;;;;;;;2.40;2.20;;;33.20;29.00;;;;;;10270674;28;20271;-71
2023/08/14 14:18:18;;;;;;;2.00;1.90;;;33.30;29.10;;;;;;10265822;28;20784;-71
2023/08/14 14:23:22;;;;;;;2.13;2.00;;;33.40;29.20;;;;;;10260331;28;20612;-71
2023/08/14 14:28:25;;;;;;;2.50;2.30;;;33.40;28.60;;;;;;10260672;28;20705;-71
2023/08/14 14:33:32;;;;;;;2.60;2.40;;;33.50;28.40;;;;;;10257312;28;20236;-71
2023/08/14 14:38:36;;;;;;;2.27;2.07;;;33.50;28.10;;;;;;10265940;28;20232;-71
2023/08/14 14:43:40;;;;;;;2.30;2.10;;;33.60;27.50;;;;;;10269254;28;20307;-71
2023/08/14 14:48:43;;;;;;;3.37;2.20;;;33.60;27.90;;;;;;10255533;28;20772;-71
2023/08/14 14:53:48;;;;;;;2.33;2.13;;;33.70;28.10;;;;;;10262153;28;20235;-70
2023/08/14 14:58:51;;;;;;;2.30;2.10;;;33.70;27.40;;;;;;10260862;28;20235;-71
2023/08/14 15:03:54;;;;;;;2.30;2.20;;;33.70;28.10;;;;;;10268330;28;20250;-70
2023/08/14 15:08:59;;;;;;;2.57;2.20;;;33.70;27.80;;;;;;10261547;28;20244;-71
2023/08/14 15:14:02;;;;;;;3.33;2.20;;;33.80;27.50;;;;;;10261691;28;20248;-71
2023/08/14 15:19:05;;;;;;;2.20;2.10;;;33.80;27.80;;;;;;10266156;28;20322;-71
2023/08/14 15:24:10;;;;;;;2.40;2.20;;;33.90;27.60;;;;;;10258016;28;20232;-70
2023/08/14 15:29:14;;;;;;;2.10;2.00;;;34.00;27.10;;;;;;10266214;28;20248;-71
2023/08/14 15:34:17;;;;;;;2.40;2.20;;;34.00;27.20;;;;;;10258120;28;20242;-71
2023/08/14 15:39:21;;;;;;;2.60;2.40;;;34.10;27.30;;;;;;10265039;28;20226;-71
2023/08/14 15:44:24;;;;;;;2.47;2.20;;;34.10;26.70;;;;;;10265641;28;20232;-71
2023/08/14 15:49:28;;;;;;;2.57;2.37;;;34.10;27.20;;;;;;10274579;28;20287;-71
2023/08/14 15:54:32;;;;;;;2.20;2.10;;;34.10;27.10;;;;;;10268963;28;20244;-71
2023/08/14 15:59:55;;;;;;;2.20;2.10;;;34.20;26.70;;;;;;10269562;28;20290;-70
2023/08/14 16:04:58;;;;;;;2.40;2.20;;;34.20;27.10;;;;;;10267562;28;20613;-71
2023/08/14 16:10:03;;;;;;;2.10;2.00;;;34.30;27.10;;;;;;10274576;28;20236;-71
2023/08/14 16:15:07;;;;;;;2.10;2.00;;;34.30;26.90;;;;;;10265381;28;20665;-71
2023/08/14 16:20:12;;;;;;;2.20;2.10;;;34.30;27.20;;;;;;10267534;28;20272;-71
2023/08/14 16:25:16;;;;;;;2.30;2.20;;;34.30;27.00;;;;;;10264231;28;20621;-71
2023/08/14 16:30:20;;;;;;;2.50;2.30;;;34.40;26.90;;;;;;10267506;28;20243;-71
2023/08/14 16:35:23;;;;;;;2.50;2.40;;;34.40;27.10;;;;;;10274269;28;20237;-71
2023/08/14 16:40:27;;;;;;;2.10;2.00;;;34.30;26.80;;;;;;10268654;28;20247;-71
2023/08/14 16:45:31;;;;;;;2.20;2.10;;;34.40;26.70;;;;;;10268028;28;20903;-71
2023/08/14 16:50:37;;;;;;;2.73;2.40;;;34.40;26.90;;;;;;10263298;28;20746;-71
2023/08/14 16:55:41;;;;;;;2.17;2.00;;;34.40;26.70;;;;;;10262504;28;20244;-71
2023/08/14 17:00:44;;;;;;;2.20;2.10;;;34.40;27.20;;;;;;10273219;28;20237;-71
2023/08/14 17:05:47;;;;;;;4.37;2.10;;;34.40;27.10;;;;;;10266597;28;20232;-71
2023/08/14 17:10:52;;;;;;;2.53;2.33;;;34.30;26.90;;;;;;10266140;28;20240;-71
2023/08/14 17:15:55;;;;;;;2.93;2.30;;;34.30;26.80;;;;;;10256332;28;20245;-71
2023/08/14 17:21:00;;;;;;;2.43;2.23;;;34.20;26.90;;;;;;10261138;28;20346;-71
2023/08/14 17:26:04;;;;;;;2.50;2.30;;;34.20;27.00;;;;;;10263887;28;20235;-71
2023/08/14 17:31:08;;;;;;;2.43;2.23;;;34.20;27.00;;;;;;10266569;28;20236;-71
2023/08/14 17:36:11;;;;;;;2.77;2.37;;;34.10;26.90;;;;;;10267774;28;20243;-71
2023/08/14 17:41:15;;;;;;;6.70;2.60;;;34.10;27.00;;;;;;10267903;28;20240;-71
2023/08/14 17:46:19;;;;;;;4.13;2.30;;;34.00;27.30;;;;;;10261990;28;20236;-71
2023/08/14 17:51:22;;;;;;;2.40;2.20;;;33.90;27.50;;;;;;10263044;28;20603;-71
2023/08/14 17:56:27;;;;;;;2.10;2.00;;;33.80;27.40;;;;;;10263969;28;20258;-71
2023/08/14 18:01:30;;;;;;;2.10;2.00;;;33.60;27.60;;;;;;10268156;28;20323;-71
2023/08/14 18:06:36;;;;;;;2.37;2.27;;;33.50;27.60;;;;;;10260244;28;20941;-70
2023/08/14 18:11:40;;;;;;;3.07;2.43;;;33.30;27.70;;;;;;10264436;28;20347;-70
2023/08/14 18:16:43;;;;;;;2.20;2.10;;;33.20;27.90;;;;;;10268562;28;20236;-70
2023/08/14 18:21:46;;;;;;;4.13;2.53;;;33.00;28.10;;;;;;10261378;28;20594;-70
2023/08/14 18:26:51;;;;;;;2.63;2.43;;;32.80;28.40;;;;;;10259066;28;20255;-71
2023/08/14 18:31:54;;;;;;;2.20;2.10;;;32.70;29.00;;;;;;10268007;28;20235;-71
2023/08/14 18:36:57;;;;;;;3.07;2.30;;;32.60;28.80;;;;;;10271250;28;20238;-71
2023/08/14 18:42:04;;;;;;;2.50;2.40;;;32.50;29.00;;;;;;10258714;28;20237;-71
2023/08/14 18:47:07;;;;;;;2.70;2.50;;;32.40;29.30;;;;;;10261507;28;20223;-71
2023/08/14 18:52:11;;;;;;;2.77;2.50;;;32.30;29.30;;;;;;10264167;28;20243;-71
2023/08/14 18:57:15;;;;;;;5.70;3.10;;;32.10;29.50;;;;;;10263380;28;20246;-70
2023/08/14 19:02:19;;;;;;;5.27;3.90;;;31.80;30.00;;;;;;10265511;28;20240;-70
2023/08/14 19:07:22;;;;;;;5.87;3.70;;;31.40;30.00;;;;;;10264030;28;20244;-70
2023/08/14 19:12:26;;;;;;;3.20;2.67;;;31.10;30.20;;;;;;10268529;28;20239;-71
2023/08/14 19:17:29;;;;;;;4.77;4.27;;;30.80;30.60;;;;;;10264001;28;20258;-70
2023/08/14 19:22:33;;;;;;;6.23;5.73;;;30.60;30.90;;;;;;10272723;28;20232;-71
2023/08/14 19:27:37;;;;;;;5.73;5.23;;;30.50;31.20;;;;;;10276026;28;20283;-71
2023/08/14 19:32:41;;;;;;;5.37;4.93;;;30.40;31.80;;;;;;10269236;28;21027;-70
2023/08/14 19:37:45;;;;;;;4.83;4.43;;;30.30;31.70;;;;;;10269353;28;20610;-71
2023/08/14 19:42:49;;;;;;;6.67;6.07;;;30.20;31.70;;;;;;10267457;28;20250;-70
2023/08/14 19:47:52;;;;;;;5.73;5.23;;;30.20;31.90;;;;;;10266762;28;20239;-70
2023/08/14 19:52:55;;;;;;;5.33;4.87;;;30.20;31.70;;;;;;10271810;28;20293;-71
2023/08/14 19:58:00;;;;;;;5.43;4.93;;;30.10;31.60;;;;;;10271090;28;20716;-71
2023/08/14 20:03:04;;;;;;;4.70;4.40;;;30.10;32.50;;;;;;10266348;28;20246;-71
2023/08/14 20:08:07;;;;;;;4.90;4.50;;;30.10;32.30;;;;;;10270603;28;20641;-71
2023/08/14 20:13:13;;;;;;;4.70;4.30;;;30.00;32.40;;;;;;10278859;28;20257;-71
2023/08/14 20:18:16;;;;;;;4.77;4.47;;;29.90;32.90;;;;;;10272493;28;20265;-71
2023/08/14 20:23:21;;;;;;;4.23;3.93;;;29.80;32.70;;;;;;10266793;28;20671;-70
2023/08/14 20:28:25;;;;;;;3.80;3.50;;;29.80;32.70;;;;;;10267880;28;20236;-71
2023/08/14 20:33:29;;;;;;;3.60;3.30;;;29.60;33.30;;;;;;10266622;28;20236;-71
2023/08/14 20:38:32;;;;;;;3.63;3.33;;;29.50;33.00;;;;;;10265099;28;20240;-71
2023/08/14 20:43:36;;;;;;;5.57;3.30;;;29.50;33.20;;;;;;10270656;28;20243;-70
2023/08/14 20:48:39;;;;;;;3.70;3.40;;;29.40;33.50;;;;;;10268646;28;20238;-70
2023/08/14 20:53:43;;;;;;;5.60;4.07;;;29.30;33.30;;;;;;10267698;28;20320;-70
2023/08/14 20:58:47;;;;;;;3.90;3.57;;;29.20;33.60;;;;;;10262003;28;20319;-71
2023/08/14 21:03:50;;;;;;;3.53;3.23;;;28.90;34.00;;;;;;10265649;28;20918;-71
2023/08/14 21:08:54;;;;;;;3.97;3.67;;;28.80;34.00;;;;;;10264455;28;20343;-71
2023/08/14 21:13:58;;;;;;;4.37;3.97;;;28.70;34.20;;;;;;10259717;28;20247;-71
2023/08/14 21:19:01;;;;;;;4.40;3.70;;;28.70;34.70;;;;;;10269311;28;20231;-71
2023/08/14 21:24:05;;;;;;;3.90;3.60;;;28.60;34.30;;;;;;10262449;28;20261;-70
2023/08/14 21:29:10;;;;;;;4.57;3.97;;;28.40;34.60;;;;;;10266004;28;20330;-71
2023/08/14 21:34:15;;;;;;;4.03;3.63;;;28.10;35.30;;;;;;10265057;28;20716;-70
2023/08/14 21:39:19;;;;;;;4.90;4.50;;;27.90;35.20;;;;;;10266945;28;20247;-71
2023/08/14 21:44:23;;;;;;;4.90;4.50;;;27.80;35.30;;;;;;10265910;28;20323;-70
2023/08/14 21:49:26;;;;;;;5.07;4.67;;;27.80;35.90;;;;;;10266152;28;20850;-70
2023/08/14 21:54:29;;;;;;;4.43;4.03;;;27.80;35.60;;;;;;10263430;28;20810;-70
2023/08/14 21:59:36;;;;;;;3.90;3.50;;;27.70;35.70;;;;;;10265168;28;20747;-71
2023/08/14 22:04:39;;;;;;;3.73;3.43;;;27.60;36.30;;;;;;10263485;28;20228;-71
2023/08/14 22:09:42;;;;;;;4.27;3.70;;;27.30;35.90;;;;;;10271390;28;20731;-71
2023/08/14 22:14:47;;;;;;;3.90;3.60;;;27.20;36.30;;;;;;10266404;28;20238;-70
2023/08/14 22:19:50;;;;;;;3.97;3.67;;;27.20;37.00;;;;;;10258275;28;22740;-70
2023/08/14 22:24:53;;;;;;;3.77;3.20;;;27.10;36.50;;;;;;10260728;28;20310;-71
2023/08/14 22:29:58;;;;;;;3.77;3.50;;;27.10;36.60;;;;;;10268974;28;20229;-70
2023/08/14 22:35:01;;;;;;;3.60;3.40;;;27.20;36.80;;;;;;10264532;28;20227;-71
2023/08/14 22:40:05;;;;;;;4.50;3.47;;;27.10;36.40;;;;;;10268115;28;20752;-71
2023/08/14 22:45:10;;;;;;;3.70;3.40;;;27.10;36.60;;;;;;10263060;28;20327;-71
2023/08/14 22:50:13;;;;;;;3.60;3.30;;;27.10;37.20;;;;;;10260382;28;20242;-71
2023/08/14 22:55:16;;;;;;;3.57;3.10;;;27.00;36.70;;;;;;10271552;28;20242;-71
2023/08/14 23:00:21;;;;;;;3.33;3.13;;;26.90;36.80;;;;;;10275065;28;21272;-71
2023/08/14 23:05:25;;;;;;;3.97;3.53;;;26.90;37.60;;;;;;10278427;28;20585;-71
2023/08/14 23:10:28;;;;;;;3.80;3.50;;;26.70;37.30;;;;;;10274178;28;20240;-70
2023/08/14 23:15:33;;;;;;;4.17;3.77;;;26.60;37.40;;;;;;10265287;28;20625;-71
2023/08/14 23:20:37;;;;;;;3.50;3.20;;;26.40;38.20;;;;;;10269459;28;20244;-71
2023/08/14 23:25:41;;;;;;;3.43;3.20;;;26.20;38.20;;;;;;10270295;28;20326;-70
2023/08/14 23:30:45;;;;;;;3.63;3.43;;;26.20;38.30;;;;;;10273420;28;20232;-71
2023/08/14 23:35:48;;;;;;;4.93;3.60;;;26.10;39.30;;;;;;10274531;28;20231;-70
2023/08/14 23:40:53;;;;;;;3.63;3.10;;;26.10;38.60;;;;;;10268502;28;20236;-71
2023/08/14 23:45:57;;;;;;;3.77;3.47;;;26.00;38.70;;;;;;10268200;28;20243;-70
2023/08/14 23:51:00;;;;;;;4.37;3.53;;;26.00;39.10;;;;;;10270207;28;20246;-71
2023/08/14 23:56:04;;;;;;;3.70;3.33;;;26.00;38.80;;;;;;10270684;28;20238;-71
